sensor_id;sensor_type;location;lat;lon;timestamp;P1;durP1;ratioP1;P2;durP2;ratioP2
69912;SDS011;57198;52.082;5.108;2023-07-29T00:01:40;2.27;;;1.37;;
69912;SDS011;57198;52.082;5.108;2023-07-29T00:04:08;4.50;;;1.30;;
69912;SDS011;57198;52.082;5.108;2023-07-29T00:06:35;2.85;;;1.10;;
69912;SDS011;57198;52.082;5.108;2023-07-29T00:09:03;3.20;;;1.10;;
69912;SDS011;57198;52.082;5.108;2023-07-29T00:11:31;2.80;;;1.42;;
69912;SDS011;57198;52.082;5.108;2023-07-29T00:14:03;4.33;;;1.33;;
69912;SDS011;57198;52.082;5.108;2023-07-29T00:16:30;3.13;;;1.20;;
69912;SDS011;57198;52.082;5.108;2023-07-29T00:18:58;3.80;;;1.38;;
69912;SDS011;57198;52.082;5.108;2023-07-29T00:21:25;2.65;;;1.27;;
69912;SDS011;57198;52.082;5.108;2023-07-29T00:23:52;2.03;;;1.20;;
69912;SDS011;57198;52.082;5.108;2023-07-29T00:26:20;3.13;;;1.63;;
69912;SDS011;57198;52.082;5.108;2023-07-29T00:28:48;2.63;;;1.70;;
69912;SDS011;57198;52.082;5.108;2023-07-29T00:31:15;3.30;;;1.58;;
69912;SDS011;57198;52.082;5.108;2023-07-29T00:33:42;3.20;;;1.90;;
69912;SDS011;57198;52.082;5.108;2023-07-29T00:36:10;5.05;;;1.80;;
69912;SDS011;57198;52.082;5.108;2023-07-29T00:38:37;4.13;;;2.20;;
69912;SDS011;57198;52.082;5.108;2023-07-29T00:41:05;3.97;;;1.98;;
69912;SDS011;57198;52.082;5.108;2023-07-29T00:43:33;4.03;;;1.63;;
69912;SDS011;57198;52.082;5.108;2023-07-29T00:46:01;3.92;;;2.17;;
69912;SDS011;57198;52.082;5.108;2023-07-29T00:48:29;3.13;;;2.10;;
69912;SDS011;57198;52.082;5.108;2023-07-29T00:50:56;4.43;;;2.47;;
69912;SDS011;57198;52.082;5.108;2023-07-29T00:53:24;4.05;;;1.80;;
69912;SDS011;57198;52.082;5.108;2023-07-29T00:55:51;3.22;;;2.00;;
69912;SDS011;57198;52.082;5.108;2023-07-29T00:58:19;5.80;;;2.13;;
69912;SDS011;57198;52.082;5.108;2023-07-29T01:00:46;4.10;;;1.90;;
69912;SDS011;57198;52.082;5.108;2023-07-29T01:03:13;3.73;;;2.50;;
69912;SDS011;57198;52.082;5.108;2023-07-29T01:05:50;5.28;;;2.60;;
69912;SDS011;57198;52.082;5.108;2023-07-29T01:10:58;4.80;;;2.88;;
69912;SDS011;57198;52.082;5.108;2023-07-29T01:13:41;5.22;;;2.45;;
69912;SDS011;57198;52.082;5.108;2023-07-29T01:16:23;2.97;;;2.23;;
69912;SDS011;57198;52.082;5.108;2023-07-29T01:18:54;7.38;;;2.67;;
69912;SDS011;57198;52.082;5.108;2023-07-29T01:21:22;5.72;;;2.60;;
69912;SDS011;57198;52.082;5.108;2023-07-29T01:23:57;4.80;;;2.83;;
69912;SDS011;57198;52.082;5.108;2023-07-29T01:26:25;6.60;;;3.20;;
69912;SDS011;57198;52.082;5.108;2023-07-29T01:28:56;6.10;;;3.27;;
69912;SDS011;57198;52.082;5.108;2023-07-29T01:31:30;6.43;;;3.55;;
69912;SDS011;57198;52.082;5.108;2023-07-29T01:34:16;7.70;;;3.40;;
69912;SDS011;57198;52.082;5.108;2023-07-29T01:36:44;6.60;;;3.30;;
69912;SDS011;57198;52.082;5.108;2023-07-29T01:39:13;6.90;;;3.45;;
69912;SDS011;57198;52.082;5.108;2023-07-29T01:41:41;6.73;;;3.27;;
69912;SDS011;57198;52.082;5.108;2023-07-29T01:44:09;7.28;;;3.67;;
69912;SDS011;57198;52.082;5.108;2023-07-29T01:46:37;5.05;;;3.10;;
69912;SDS011;57198;52.082;5.108;2023-07-29T01:49:06;4.25;;;3.28;;
69912;SDS011;57198;52.082;5.108;2023-07-29T01:51:33;7.18;;;3.88;;
69912;SDS011;57198;52.082;5.108;2023-07-29T01:54:00;7.67;;;4.00;;
69912;SDS011;57198;52.082;5.108;2023-07-29T01:56:28;9.07;;;4.40;;
69912;SDS011;57198;52.082;5.108;2023-07-29T01:58:56;7.25;;;3.88;;
69912;SDS011;57198;52.082;5.108;2023-07-29T02:01:23;6.95;;;4.38;;
69912;SDS011;57198;52.082;5.108;2023-07-29T02:03:51;7.50;;;3.80;;
69912;SDS011;57198;52.082;5.108;2023-07-29T02:06:22;4.93;;;3.50;;
69912;SDS011;57198;52.082;5.108;2023-07-29T02:08:50;5.40;;;3.65;;
69912;SDS011;57198;52.082;5.108;2023-07-29T02:11:18;8.30;;;3.70;;
69912;SDS011;57198;52.082;5.108;2023-07-29T02:13:47;6.82;;;3.25;;
69912;SDS011;57198;52.082;5.108;2023-07-29T02:16:14;7.15;;;4.00;;
69912;SDS011;57198;52.082;5.108;2023-07-29T02:18:42;5.43;;;3.70;;
69912;SDS011;57198;52.082;5.108;2023-07-29T02:21:09;8.02;;;3.55;;
69912;SDS011;57198;52.082;5.108;2023-07-29T02:23:36;5.07;;;3.70;;
69912;SDS011;57198;52.082;5.108;2023-07-29T02:26:04;7.00;;;3.30;;
69912;SDS011;57198;52.082;5.108;2023-07-29T02:28:31;5.90;;;3.30;;
69912;SDS011;57198;52.082;5.108;2023-07-29T02:33:45;5.63;;;2.88;;
69912;SDS011;57198;52.082;5.108;2023-07-29T02:36:14;5.60;;;3.13;;
69912;SDS011;57198;52.082;5.108;2023-07-29T02:38:41;4.93;;;3.03;;
69912;SDS011;57198;52.082;5.108;2023-07-29T02:41:09;3.35;;;2.78;;
69912;SDS011;57198;52.082;5.108;2023-07-29T02:43:38;4.63;;;2.93;;
69912;SDS011;57198;52.082;5.108;2023-07-29T02:46:08;6.53;;;2.90;;
69912;SDS011;57198;52.082;5.108;2023-07-29T02:48:35;3.65;;;2.67;;
69912;SDS011;57198;52.082;5.108;2023-07-29T02:51:02;3.75;;;2.88;;
69912;SDS011;57198;52.082;5.108;2023-07-29T02:53:30;6.32;;;2.67;;
69912;SDS011;57198;52.082;5.108;2023-07-29T02:55:57;2.90;;;2.67;;
69912;SDS011;57198;52.082;5.108;2023-07-29T02:58:24;3.25;;;2.35;;
69912;SDS011;57198;52.082;5.108;2023-07-29T03:00:53;4.57;;;2.80;;
69912;SDS011;57198;52.082;5.108;2023-07-29T03:03:20;3.60;;;2.50;;
69912;SDS011;57198;52.082;5.108;2023-07-29T03:05:47;4.03;;;2.15;;
69912;SDS011;57198;52.082;5.108;2023-07-29T03:08:15;2.83;;;2.53;;
69912;SDS011;57198;52.082;5.108;2023-07-29T03:10:42;4.10;;;2.28;;
69912;SDS011;57198;52.082;5.108;2023-07-29T03:13:09;4.15;;;2.45;;
69912;SDS011;57198;52.082;5.108;2023-07-29T03:15:37;2.88;;;2.50;;
69912;SDS011;57198;52.082;5.108;2023-07-29T03:18:05;2.42;;;2.22;;
69912;SDS011;57198;52.082;5.108;2023-07-29T03:20:32;5.33;;;2.90;;
69912;SDS011;57198;52.082;5.108;2023-07-29T03:22:59;4.97;;;2.65;;
69912;SDS011;57198;52.082;5.108;2023-07-29T03:25:27;3.45;;;2.08;;
69912;SDS011;57198;52.082;5.108;2023-07-29T03:27:55;2.63;;;2.38;;
69912;SDS011;57198;52.082;5.108;2023-07-29T03:30:22;3.83;;;2.28;;
69912;SDS011;57198;52.082;5.108;2023-07-29T03:32:51;5.07;;;2.30;;
69912;SDS011;57198;52.082;5.108;2023-07-29T03:35:19;5.30;;;2.70;;
69912;SDS011;57198;52.082;5.108;2023-07-29T03:37:46;4.68;;;2.25;;
69912;SDS011;57198;52.082;5.108;2023-07-29T03:40:14;2.85;;;2.20;;
69912;SDS011;57198;52.082;5.108;2023-07-29T03:42:41;3.70;;;1.90;;
69912;SDS011;57198;52.082;5.108;2023-07-29T03:45:09;1.97;;;1.80;;
69912;SDS011;57198;52.082;5.108;2023-07-29T03:47:36;2.60;;;2.40;;
69912;SDS011;57198;52.082;5.108;2023-07-29T03:50:04;3.10;;;2.45;;
69912;SDS011;57198;52.082;5.108;2023-07-29T03:52:31;3.13;;;2.17;;
69912;SDS011;57198;52.082;5.108;2023-07-29T03:54:58;2.55;;;2.13;;
69912;SDS011;57198;52.082;5.108;2023-07-29T03:57:26;2.13;;;2.00;;
69912;SDS011;57198;52.082;5.108;2023-07-29T03:59:55;3.55;;;2.88;;
69912;SDS011;57198;52.082;5.108;2023-07-29T04:02:22;3.30;;;2.70;;
69912;SDS011;57198;52.082;5.108;2023-07-29T04:04:50;3.92;;;2.75;;
69912;SDS011;57198;52.082;5.108;2023-07-29T04:07:17;2.60;;;2.40;;
69912;SDS011;57198;52.082;5.108;2023-07-29T04:09:44;4.17;;;2.90;;
69912;SDS011;57198;52.082;5.108;2023-07-29T04:12:12;5.60;;;2.80;;
69912;SDS011;57198;52.082;5.108;2023-07-29T04:14:39;4.18;;;2.00;;
69912;SDS011;57198;52.082;5.108;2023-07-29T04:17:07;2.35;;;2.10;;
69912;SDS011;57198;52.082;5.108;2023-07-29T04:19:34;2.55;;;2.33;;
69912;SDS011;57198;52.082;5.108;2023-07-29T04:22:02;3.07;;;2.37;;
69912;SDS011;57198;52.082;5.108;2023-07-29T04:24:29;3.33;;;2.85;;
69912;SDS011;57198;52.082;5.108;2023-07-29T04:26:57;2.83;;;2.45;;
69912;SDS011;57198;52.082;5.108;2023-07-29T04:29:24;3.30;;;2.20;;
69912;SDS011;57198;52.082;5.108;2023-07-29T04:31:51;4.38;;;2.42;;
69912;SDS011;57198;52.082;5.108;2023-07-29T04:34:19;6.07;;;2.20;;
69912;SDS011;57198;52.082;5.108;2023-07-29T04:36:47;2.65;;;2.30;;
69912;SDS011;57198;52.082;5.108;2023-07-29T04:39:14;3.33;;;2.35;;
69912;SDS011;57198;52.082;5.108;2023-07-29T04:41:42;3.33;;;2.70;;
69912;SDS011;57198;52.082;5.108;2023-07-29T04:44:09;6.68;;;2.50;;
69912;SDS011;57198;52.082;5.108;2023-07-29T04:46:37;4.80;;;2.90;;
69912;SDS011;57198;52.082;5.108;2023-07-29T04:49:05;3.63;;;2.35;;
69912;SDS011;57198;52.082;5.108;2023-07-29T04:51:32;3.65;;;2.47;;
69912;SDS011;57198;52.082;5.108;2023-07-29T04:54:00;2.95;;;2.10;;
69912;SDS011;57198;52.082;5.108;2023-07-29T04:56:27;3.00;;;2.60;;
69912;SDS011;57198;52.082;5.108;2023-07-29T04:58:54;3.37;;;2.63;;
69912;SDS011;57198;52.082;5.108;2023-07-29T05:01:22;3.50;;;2.78;;
69912;SDS011;57198;52.082;5.108;2023-07-29T05:03:51;3.88;;;2.58;;
69912;SDS011;57198;52.082;5.108;2023-07-29T05:06:18;3.88;;;3.00;;
69912;SDS011;57198;52.082;5.108;2023-07-29T05:08:45;4.72;;;2.75;;
69912;SDS011;57198;52.082;5.108;2023-07-29T05:11:13;7.10;;;3.20;;
69912;SDS011;57198;52.082;5.108;2023-07-29T05:13:40;4.75;;;3.28;;
69912;SDS011;57198;52.082;5.108;2023-07-29T05:16:10;6.45;;;3.60;;
69912;SDS011;57198;52.082;5.108;2023-07-29T05:18:38;5.80;;;3.63;;
69912;SDS011;57198;52.082;5.108;2023-07-29T05:21:05;6.38;;;3.35;;
69912;SDS011;57198;52.082;5.108;2023-07-29T05:23:34;6.37;;;3.57;;
69912;SDS011;57198;52.082;5.108;2023-07-29T05:26:02;5.82;;;3.00;;
69912;SDS011;57198;52.082;5.108;2023-07-29T05:28:29;5.22;;;3.35;;
69912;SDS011;57198;52.082;5.108;2023-07-29T05:30:57;5.20;;;4.00;;
69912;SDS011;57198;52.082;5.108;2023-07-29T05:33:27;7.57;;;3.63;;
69912;SDS011;57198;52.082;5.108;2023-07-29T05:35:55;6.57;;;3.87;;
69912;SDS011;57198;52.082;5.108;2023-07-29T05:38:22;3.72;;;3.25;;
69912;SDS011;57198;52.082;5.108;2023-07-29T05:40:50;5.40;;;3.75;;
69912;SDS011;57198;52.082;5.108;2023-07-29T05:43:17;6.38;;;3.97;;
69912;SDS011;57198;52.082;5.108;2023-07-29T05:45:44;6.68;;;4.20;;
69912;SDS011;57198;52.082;5.108;2023-07-29T05:48:12;5.20;;;3.77;;
69912;SDS011;57198;52.082;5.108;2023-07-29T05:50:39;5.90;;;4.18;;
69912;SDS011;57198;52.082;5.108;2023-07-29T05:53:06;7.90;;;4.00;;
69912;SDS011;57198;52.082;5.108;2023-07-29T05:55:34;5.53;;;4.07;;
69912;SDS011;57198;52.082;5.108;2023-07-29T05:58:01;6.53;;;3.30;;
69912;SDS011;57198;52.082;5.108;2023-07-29T06:00:29;5.67;;;3.63;;
69912;SDS011;57198;52.082;5.108;2023-07-29T06:02:58;6.18;;;3.60;;
69912;SDS011;57198;52.082;5.108;2023-07-29T06:05:26;5.40;;;4.03;;
69912;SDS011;57198;52.082;5.108;2023-07-29T06:07:53;9.05;;;3.92;;
69912;SDS011;57198;52.082;5.108;2023-07-29T06:10:20;6.25;;;3.95;;
69912;SDS011;57198;52.082;5.108;2023-07-29T06:12:48;7.73;;;4.50;;
69912;SDS011;57198;52.082;5.108;2023-07-29T06:15:16;6.45;;;4.07;;
69912;SDS011;57198;52.082;5.108;2023-07-29T06:17:43;6.60;;;4.32;;
69912;SDS011;57198;52.082;5.108;2023-07-29T06:20:11;7.47;;;4.50;;
69912;SDS011;57198;52.082;5.108;2023-07-29T06:22:38;6.68;;;3.88;;
69912;SDS011;57198;52.082;5.108;2023-07-29T06:25:05;5.30;;;3.60;;
69912;SDS011;57198;52.082;5.108;2023-07-29T06:27:33;8.43;;;3.90;;
69912;SDS011;57198;52.082;5.108;2023-07-29T06:30:00;5.65;;;3.67;;
69912;SDS011;57198;52.082;5.108;2023-07-29T06:32:28;6.07;;;4.10;;
69912;SDS011;57198;52.082;5.108;2023-07-29T06:34:55;6.25;;;4.30;;
69912;SDS011;57198;52.082;5.108;2023-07-29T06:37:23;7.47;;;4.03;;
69912;SDS011;57198;52.082;5.108;2023-07-29T06:39:50;7.15;;;4.10;;
69912;SDS011;57198;52.082;5.108;2023-07-29T06:42:17;5.88;;;4.10;;
69912;SDS011;57198;52.082;5.108;2023-07-29T06:44:45;6.93;;;4.40;;
69912;SDS011;57198;52.082;5.108;2023-07-29T06:47:12;8.60;;;3.80;;
69912;SDS011;57198;52.082;5.108;2023-07-29T06:49:40;6.77;;;4.27;;
69912;SDS011;57198;52.082;5.108;2023-07-29T06:52:07;5.43;;;4.00;;
69912;SDS011;57198;52.082;5.108;2023-07-29T06:54:34;6.18;;;3.63;;
69912;SDS011;57198;52.082;5.108;2023-07-29T06:57:02;6.30;;;3.83;;
69912;SDS011;57198;52.082;5.108;2023-07-29T06:59:30;7.25;;;3.90;;
69912;SDS011;57198;52.082;5.108;2023-07-29T07:01:57;7.47;;;3.77;;
69912;SDS011;57198;52.082;5.108;2023-07-29T07:04:26;6.40;;;4.15;;
69912;SDS011;57198;52.082;5.108;2023-07-29T07:06:53;8.25;;;4.03;;
69912;SDS011;57198;52.082;5.108;2023-07-29T07:09:21;6.28;;;3.92;;
69912;SDS011;57198;52.082;5.108;2023-07-29T07:11:48;5.78;;;3.97;;
69912;SDS011;57198;52.082;5.108;2023-07-29T07:14:15;4.87;;;3.43;;
69912;SDS011;57198;52.082;5.108;2023-07-29T07:16:43;7.57;;;4.13;;
69912;SDS011;57198;52.082;5.108;2023-07-29T07:19:10;6.88;;;3.88;;
69912;SDS011;57198;52.082;5.108;2023-07-29T07:21:38;6.75;;;4.47;;
69912;SDS011;57198;52.082;5.108;2023-07-29T07:24:05;7.40;;;4.72;;
69912;SDS011;57198;52.082;5.108;2023-07-29T07:26:32;6.87;;;4.43;;
69912;SDS011;57198;52.082;5.108;2023-07-29T07:29:00;7.35;;;4.78;;
69912;SDS011;57198;52.082;5.108;2023-07-29T07:31:28;5.03;;;3.97;;
69912;SDS011;57198;52.082;5.108;2023-07-29T07:33:55;5.93;;;3.88;;
69912;SDS011;57198;52.082;5.108;2023-07-29T07:36:22;5.70;;;4.18;;
69912;SDS011;57198;52.082;5.108;2023-07-29T07:38:50;5.23;;;3.90;;
69912;SDS011;57198;52.082;5.108;2023-07-29T07:41:17;4.68;;;4.10;;
69912;SDS011;57198;52.082;5.108;2023-07-29T07:43:44;5.63;;;5.05;;
69912;SDS011;57198;52.082;5.108;2023-07-29T07:46:12;4.75;;;4.35;;
69912;SDS011;57198;52.082;5.108;2023-07-29T07:48:39;8.35;;;4.65;;
69912;SDS011;57198;52.082;5.108;2023-07-29T07:51:12;5.67;;;3.93;;
69912;SDS011;57198;52.082;5.108;2023-07-29T07:53:40;5.03;;;4.45;;
69912;SDS011;57198;52.082;5.108;2023-07-29T07:56:08;4.97;;;3.60;;
69912;SDS011;57198;52.082;5.108;2023-07-29T07:58:35;3.63;;;3.20;;
69912;SDS011;57198;52.082;5.108;2023-07-29T08:01:03;4.38;;;3.25;;
69912;SDS011;57198;52.082;5.108;2023-07-29T08:03:30;4.43;;;3.53;;
69912;SDS011;57198;52.082;5.108;2023-07-29T08:05:58;6.70;;;3.47;;
69912;SDS011;57198;52.082;5.108;2023-07-29T08:08:26;3.47;;;3.15;;
69912;SDS011;57198;52.082;5.108;2023-07-29T08:10:54;3.10;;;2.83;;
69912;SDS011;57198;52.082;5.108;2023-07-29T08:13:21;5.68;;;3.53;;
69912;SDS011;57198;52.082;5.108;2023-07-29T08:15:49;4.40;;;3.27;;
69912;SDS011;57198;52.082;5.108;2023-07-29T08:18:17;6.32;;;2.97;;
69912;SDS011;57198;52.082;5.108;2023-07-29T08:20:54;4.78;;;3.28;;
69912;SDS011;57198;52.082;5.108;2023-07-29T08:23:22;5.40;;;3.35;;
69912;SDS011;57198;52.082;5.108;2023-07-29T08:25:53;6.28;;;3.10;;
69912;SDS011;57198;52.082;5.108;2023-07-29T08:28:20;3.03;;;2.77;;
69912;SDS011;57198;52.082;5.108;2023-07-29T08:30:48;4.55;;;2.85;;
69912;SDS011;57198;52.082;5.108;2023-07-29T08:33:15;3.67;;;2.45;;
69912;SDS011;57198;52.082;5.108;2023-07-29T08:35:43;4.32;;;3.05;;
69912;SDS011;57198;52.082;5.108;2023-07-29T08:38:10;6.18;;;2.75;;
69912;SDS011;57198;52.082;5.108;2023-07-29T08:40:40;5.03;;;2.93;;
69912;SDS011;57198;52.082;5.108;2023-07-29T08:43:09;4.43;;;3.53;;
69912;SDS011;57198;52.082;5.108;2023-07-29T08:45:36;4.43;;;3.47;;
69912;SDS011;57198;52.082;5.108;2023-07-29T08:48:06;3.70;;;3.38;;
69912;SDS011;57198;52.082;5.108;2023-07-29T08:50:35;6.35;;;3.80;;
69912;SDS011;57198;52.082;5.108;2023-07-29T08:53:06;6.10;;;3.57;;
69912;SDS011;57198;52.082;5.108;2023-07-29T08:55:33;6.47;;;3.35;;
69912;SDS011;57198;52.082;5.108;2023-07-29T08:58:01;3.65;;;3.42;;
69912;SDS011;57198;52.082;5.108;2023-07-29T09:00:29;3.28;;;2.97;;
69912;SDS011;57198;52.082;5.108;2023-07-29T09:02:57;3.05;;;2.85;;
69912;SDS011;57198;52.082;5.108;2023-07-29T09:05:31;3.40;;;3.10;;
69912;SDS011;57198;52.082;5.108;2023-07-29T09:07:59;5.55;;;3.67;;
69912;SDS011;57198;52.082;5.108;2023-07-29T09:10:28;4.97;;;3.20;;
69912;SDS011;57198;52.082;5.108;2023-07-29T09:12:55;3.90;;;3.35;;
69912;SDS011;57198;52.082;5.108;2023-07-29T09:15:27;3.88;;;3.10;;
69912;SDS011;57198;52.082;5.108;2023-07-29T09:17:55;3.90;;;3.50;;
69912;SDS011;57198;52.082;5.108;2023-07-29T09:20:27;5.50;;;3.45;;
69912;SDS011;57198;52.082;5.108;2023-07-29T09:22:55;3.83;;;2.92;;
69912;SDS011;57198;52.082;5.108;2023-07-29T09:25:25;3.85;;;3.55;;
69912;SDS011;57198;52.082;5.108;2023-07-29T09:27:58;4.43;;;3.00;;
69912;SDS011;57198;52.082;5.108;2023-07-29T09:30:26;5.03;;;3.40;;
69912;SDS011;57198;52.082;5.108;2023-07-29T09:32:57;6.10;;;3.90;;
69912;SDS011;57198;52.082;5.108;2023-07-29T09:35:26;8.02;;;4.78;;
69912;SDS011;57198;52.082;5.108;2023-07-29T09:37:54;5.07;;;4.60;;
69912;SDS011;57198;52.082;5.108;2023-07-29T09:40:22;6.22;;;4.70;;
69912;SDS011;57198;52.082;5.108;2023-07-29T09:42:55;5.87;;;5.20;;
69912;SDS011;57198;52.082;5.108;2023-07-29T09:45:23;4.80;;;4.18;;
69912;SDS011;57198;52.082;5.108;2023-07-29T09:47:52;6.35;;;4.80;;
69912;SDS011;57198;52.082;5.108;2023-07-29T09:50:23;7.15;;;4.97;;
69912;SDS011;57198;52.082;5.108;2023-07-29T09:52:51;4.20;;;3.78;;
69912;SDS011;57198;52.082;5.108;2023-07-29T09:55:19;5.83;;;3.67;;
69912;SDS011;57198;52.082;5.108;2023-07-29T09:57:47;10.50;;;4.00;;
69912;SDS011;57198;52.082;5.108;2023-07-29T10:00:14;7.82;;;3.80;;
69912;SDS011;57198;52.082;5.108;2023-07-29T10:02:42;5.47;;;3.58;;
69912;SDS011;57198;52.082;5.108;2023-07-29T10:05:10;5.50;;;4.60;;
69912;SDS011;57198;52.082;5.108;2023-07-29T10:07:38;5.80;;;3.50;;
69912;SDS011;57198;52.082;5.108;2023-07-29T10:10:06;5.13;;;3.47;;
69912;SDS011;57198;52.082;5.108;2023-07-29T10:12:35;6.07;;;3.53;;
69912;SDS011;57198;52.082;5.108;2023-07-29T10:15:03;6.45;;;4.00;;
69912;SDS011;57198;52.082;5.108;2023-07-29T10:17:32;4.80;;;4.07;;
69912;SDS011;57198;52.082;5.108;2023-07-29T10:20:01;5.93;;;4.87;;
69912;SDS011;57198;52.082;5.108;2023-07-29T10:22:28;6.97;;;4.25;;
69912;SDS011;57198;52.082;5.108;2023-07-29T10:25:04;5.68;;;3.97;;
69912;SDS011;57198;52.082;5.108;2023-07-29T10:27:35;6.18;;;3.92;;
69912;SDS011;57198;52.082;5.108;2023-07-29T10:30:06;6.25;;;4.15;;
69912;SDS011;57198;52.082;5.108;2023-07-29T10:32:34;4.93;;;4.00;;
69912;SDS011;57198;52.082;5.108;2023-07-29T10:35:01;7.55;;;3.72;;
69912;SDS011;57198;52.082;5.108;2023-07-29T10:37:28;4.95;;;3.03;;
69912;SDS011;57198;52.082;5.108;2023-07-29T10:39:59;4.07;;;2.88;;
69912;SDS011;57198;52.082;5.108;2023-07-29T10:42:26;2.78;;;2.58;;
69912;SDS011;57198;52.082;5.108;2023-07-29T10:44:53;3.73;;;2.67;;
69912;SDS011;57198;52.082;5.108;2023-07-29T10:47:22;2.28;;;2.08;;
69912;SDS011;57198;52.082;5.108;2023-07-29T10:49:51;2.30;;;2.08;;
69912;SDS011;57198;52.082;5.108;2023-07-29T10:54:57;3.58;;;2.28;;
69912;SDS011;57198;52.082;5.108;2023-07-29T10:57:35;2.90;;;2.20;;
69912;SDS011;57198;52.082;5.108;2023-07-29T11:00:04;1.95;;;1.83;;
69912;SDS011;57198;52.082;5.108;2023-07-29T11:02:33;2.67;;;2.15;;
69912;SDS011;57198;52.082;5.108;2023-07-29T11:05:05;3.67;;;1.88;;
69912;SDS011;57198;52.082;5.108;2023-07-29T11:07:43;1.65;;;1.55;;
69912;SDS011;57198;52.082;5.108;2023-07-29T11:10:11;2.43;;;1.60;;
69912;SDS011;57198;52.082;5.108;2023-07-29T11:12:40;2.97;;;1.38;;
69912;SDS011;57198;52.082;5.108;2023-07-29T11:20:10;1.73;;;1.00;;
69912;SDS011;57198;52.082;5.108;2023-07-29T11:22:38;1.30;;;1.20;;
69912;SDS011;57198;52.082;5.108;2023-07-29T11:25:06;2.92;;;1.63;;
69912;SDS011;57198;52.082;5.108;2023-07-29T11:27:35;2.70;;;1.67;;
69912;SDS011;57198;52.082;5.108;2023-07-29T11:30:04;2.75;;;1.45;;
69912;SDS011;57198;52.082;5.108;2023-07-29T11:32:32;1.55;;;1.40;;
69912;SDS011;57198;52.082;5.108;2023-07-29T11:35:07;2.33;;;1.33;;
69912;SDS011;57198;52.082;5.108;2023-07-29T11:37:36;3.42;;;1.42;;
69912;SDS011;57198;52.082;5.108;2023-07-29T11:40:04;1.95;;;1.40;;
69912;SDS011;57198;52.082;5.108;2023-07-29T11:42:33;2.28;;;2.03;;
69912;SDS011;57198;52.082;5.108;2023-07-29T11:45:05;1.77;;;1.45;;
69912;SDS011;57198;52.082;5.108;2023-07-29T11:47:33;2.47;;;2.27;;
69912;SDS011;57198;52.082;5.108;2023-07-29T11:50:04;3.30;;;2.25;;
69912;SDS011;57198;52.082;5.108;2023-07-29T11:52:32;2.75;;;2.10;;
69912;SDS011;57198;52.082;5.108;2023-07-29T11:55:01;1.60;;;1.20;;
69912;SDS011;57198;52.082;5.108;2023-07-29T11:57:30;3.53;;;1.90;;
69912;SDS011;57198;52.082;5.108;2023-07-29T11:59:57;2.40;;;2.03;;
69912;SDS011;57198;52.082;5.108;2023-07-29T12:02:24;2.10;;;1.85;;
69912;SDS011;57198;52.082;5.108;2023-07-29T12:04:52;1.63;;;1.52;;
69912;SDS011;57198;52.082;5.108;2023-07-29T12:07:20;1.77;;;1.67;;
69912;SDS011;57198;52.082;5.108;2023-07-29T12:09:48;2.08;;;1.30;;
69912;SDS011;57198;52.082;5.108;2023-07-29T12:12:16;3.10;;;1.60;;
69912;SDS011;57198;52.082;5.108;2023-07-29T12:14:44;2.38;;;1.70;;
69912;SDS011;57198;52.082;5.108;2023-07-29T12:17:15;1.83;;;1.50;;
69912;SDS011;57198;52.082;5.108;2023-07-29T12:19:42;2.25;;;1.88;;
69912;SDS011;57198;52.082;5.108;2023-07-29T12:22:10;2.47;;;1.85;;
69912;SDS011;57198;52.082;5.108;2023-07-29T12:24:38;2.00;;;1.90;;
69912;SDS011;57198;52.082;5.108;2023-07-29T12:27:10;1.85;;;1.52;;
69912;SDS011;57198;52.082;5.108;2023-07-29T12:29:42;1.50;;;1.40;;
69912;SDS011;57198;52.082;5.108;2023-07-29T12:32:10;2.05;;;1.95;;
69912;SDS011;57198;52.082;5.108;2023-07-29T12:34:38;2.30;;;1.83;;
69912;SDS011;57198;52.082;5.108;2023-07-29T12:37:06;1.93;;;1.37;;
69912;SDS011;57198;52.082;5.108;2023-07-29T12:39:35;3.25;;;1.80;;
69912;SDS011;57198;52.082;5.108;2023-07-29T12:42:02;2.20;;;1.85;;
69912;SDS011;57198;52.082;5.108;2023-07-29T12:44:31;1.77;;;1.60;;
69912;SDS011;57198;52.082;5.108;2023-07-29T12:47:00;2.63;;;2.03;;
69912;SDS011;57198;52.082;5.108;2023-07-29T12:49:29;2.97;;;2.67;;
69912;SDS011;57198;52.082;5.108;2023-07-29T12:51:57;3.28;;;2.00;;
69912;SDS011;57198;52.082;5.108;2023-07-29T12:54:24;1.98;;;1.80;;
69912;SDS011;57198;52.082;5.108;2023-07-29T12:56:51;2.63;;;1.60;;
69912;SDS011;57198;52.082;5.108;2023-07-29T12:59:19;1.92;;;1.70;;
69912;SDS011;57198;52.082;5.108;2023-07-29T13:01:46;2.40;;;1.77;;
69912;SDS011;57198;52.082;5.108;2023-07-29T13:04:14;2.08;;;1.70;;
69912;SDS011;57198;52.082;5.108;2023-07-29T13:06:41;2.15;;;1.90;;
69912;SDS011;57198;52.082;5.108;2023-07-29T13:09:09;1.88;;;1.77;;
69912;SDS011;57198;52.082;5.108;2023-07-29T13:11:36;2.00;;;1.90;;
69912;SDS011;57198;52.082;5.108;2023-07-29T13:14:03;2.83;;;1.90;;
69912;SDS011;57198;52.082;5.108;2023-07-29T13:16:31;1.80;;;1.50;;
69912;SDS011;57198;52.082;5.108;2023-07-29T13:18:58;2.33;;;1.30;;
69912;SDS011;57198;52.082;5.108;2023-07-29T13:21:26;1.50;;;1.40;;
69912;SDS011;57198;52.082;5.108;2023-07-29T13:23:53;2.67;;;1.70;;
69912;SDS011;57198;52.082;5.108;2023-07-29T13:26:20;4.13;;;1.37;;
69912;SDS011;57198;52.082;5.108;2023-07-29T13:28:48;2.00;;;1.90;;
69912;SDS011;57198;52.082;5.108;2023-07-29T13:31:15;3.47;;;1.67;;
69912;SDS011;57198;52.082;5.108;2023-07-29T13:33:42;1.67;;;1.55;;
69912;SDS011;57198;52.082;5.108;2023-07-29T13:36:10;4.70;;;1.83;;
69912;SDS011;57198;52.082;5.108;2023-07-29T13:38:37;2.17;;;2.07;;
69912;SDS011;57198;52.082;5.108;2023-07-29T13:41:04;2.53;;;1.50;;
69912;SDS011;57198;52.082;5.108;2023-07-29T13:43:32;3.80;;;2.17;;
69912;SDS011;57198;52.082;5.108;2023-07-29T13:45:59;3.47;;;1.60;;
69912;SDS011;57198;52.082;5.108;2023-07-29T13:48:27;3.55;;;1.67;;
69912;SDS011;57198;52.082;5.108;2023-07-29T13:50:54;1.83;;;1.40;;
69912;SDS011;57198;52.082;5.108;2023-07-29T13:53:21;2.33;;;1.50;;
69912;SDS011;57198;52.082;5.108;2023-07-29T13:55:49;1.35;;;1.25;;
69912;SDS011;57198;52.082;5.108;2023-07-29T13:58:16;1.98;;;1.70;;
69912;SDS011;57198;52.082;5.108;2023-07-29T14:00:43;2.17;;;1.40;;
69912;SDS011;57198;52.082;5.108;2023-07-29T14:03:11;4.17;;;1.20;;
69912;SDS011;57198;52.082;5.108;2023-07-29T14:05:38;2.22;;;1.92;;
69912;SDS011;57198;52.082;5.108;2023-07-29T14:08:05;2.15;;;1.27;;
69912;SDS011;57198;52.082;5.108;2023-07-29T14:10:33;2.58;;;1.17;;
69912;SDS011;57198;52.082;5.108;2023-07-29T14:13:00;3.42;;;1.08;;
69912;SDS011;57198;52.082;5.108;2023-07-29T14:15:28;1.53;;;1.10;;
69912;SDS011;57198;52.082;5.108;2023-07-29T14:17:55;1.20;;;1.10;;
69912;SDS011;57198;52.082;5.108;2023-07-29T14:20:22;2.65;;;1.15;;
69912;SDS011;57198;52.082;5.108;2023-07-29T14:22:50;1.60;;;1.30;;
69912;SDS011;57198;52.082;5.108;2023-07-29T14:25:17;1.95;;;0.85;;
69912;SDS011;57198;52.082;5.108;2023-07-29T14:27:45;1.83;;;1.03;;
69912;SDS011;57198;52.082;5.108;2023-07-29T14:30:12;1.27;;;0.80;;
69912;SDS011;57198;52.082;5.108;2023-07-29T14:32:39;1.70;;;0.80;;
69912;SDS011;57198;52.082;5.108;2023-07-29T14:35:07;1.27;;;0.85;;
69912;SDS011;57198;52.082;5.108;2023-07-29T14:37:34;1.77;;;0.98;;
69912;SDS011;57198;52.082;5.108;2023-07-29T14:40:02;1.37;;;1.10;;
69912;SDS011;57198;52.082;5.108;2023-07-29T14:42:29;2.00;;;0.93;;
69912;SDS011;57198;52.082;5.108;2023-07-29T14:44:59;2.55;;;1.00;;
69912;SDS011;57198;52.082;5.108;2023-07-29T14:47:27;1.40;;;1.10;;
69912;SDS011;57198;52.082;5.108;2023-07-29T14:49:54;0.98;;;0.70;;
69912;SDS011;57198;52.082;5.108;2023-07-29T14:52:21;1.53;;;0.90;;
69912;SDS011;57198;52.082;5.108;2023-07-29T14:54:49;2.55;;;1.13;;
69912;SDS011;57198;52.082;5.108;2023-07-29T14:57:16;1.95;;;0.90;;
69912;SDS011;57198;52.082;5.108;2023-07-29T14:59:44;1.92;;;0.90;;
69912;SDS011;57198;52.082;5.108;2023-07-29T15:02:11;1.10;;;0.90;;
69912;SDS011;57198;52.082;5.108;2023-07-29T15:04:39;1.23;;;0.80;;
69912;SDS011;57198;52.082;5.108;2023-07-29T15:07:06;1.90;;;0.82;;